createdAt,value
2022-08-12T00:02:02.722Z,2.53
2022-08-12T00:04:52.975Z,1.65
2022-08-12T00:08:01.245Z,1.90
2022-08-12T00:11:09.792Z,2.03
2022-08-12T00:14:19.070Z,2.53
2022-08-12T00:17:25.375Z,1.90
2022-08-12T00:20:31.975Z,1.90
2022-08-12T00:23:40.619Z,2.42
2022-08-12T00:26:46.821Z,2.00
2022-08-12T00:29:53.746Z,2.00
2022-08-12T00:33:00.443Z,3.60
2022-08-12T00:36:10.570Z,1.63
2022-08-12T00:39:38.196Z,1.90
2022-08-12T00:42:26.212Z,1.83
2022-08-12T00:45:15.074Z,2.20
2022-08-12T00:48:03.891Z,2.55
2022-08-12T00:50:56.246Z,1.65
2022-08-12T00:53:44.475Z,2.00
2022-08-12T00:56:37.017Z,2.03
2022-08-12T00:59:25.490Z,1.75
2022-08-12T01:02:23.919Z,2.10
2022-08-12T01:05:31.204Z,2.35
2022-08-12T01:08:45.777Z,1.90
2022-08-12T01:11:35.839Z,1.65
2022-08-12T01:14:25.851Z,1.40
2022-08-12T01:17:14.695Z,2.00
2022-08-12T01:20:09.655Z,2.95
2022-08-12T01:23:16.584Z,1.70
2022-08-12T01:26:09.459Z,2.50
2022-08-12T01:28:59.895Z,1.75
2022-08-12T01:31:51.527Z,2.13
2022-08-12T01:37:36.991Z,1.60
2022-08-12T01:40:33.174Z,2.00
2022-08-12T01:43:28.372Z,2.25
2022-08-12T01:46:31.158Z,3.33
2022-08-12T01:49:46.552Z,1.50
2022-08-12T01:52:46.313Z,1.95
2022-08-12T01:55:38.600Z,1.80
2022-08-12T01:58:54.215Z,2.50
2022-08-12T02:01:46.026Z,1.60
2022-08-12T02:05:05.219Z,1.70
2022-08-12T02:08:26.090Z,1.88
2022-08-12T02:11:21.766Z,1.95
2022-08-12T02:14:43.142Z,1.85
2022-08-12T02:17:56.215Z,2.20
2022-08-12T02:20:52.646Z,2.63
2022-08-12T02:23:42.598Z,1.75
2022-08-12T02:26:37.676Z,2.63
2022-08-12T02:29:27.842Z,2.28
2022-08-12T02:32:17.270Z,2.05
2022-08-12T02:35:06.631Z,1.95
2022-08-12T02:37:57.745Z,2.40
2022-08-12T02:40:50.846Z,1.92
2022-08-12T02:43:46.732Z,2.47
2022-08-12T02:46:37.987Z,2.10
2022-08-12T02:49:32.728Z,2.75
2022-08-12T02:52:21.460Z,2.00
2022-08-12T02:55:33.985Z,1.98
2022-08-12T02:58:30.673Z,2.67
2022-08-12T03:01:28.679Z,2.65
2022-08-12T03:04:26.956Z,1.90
2022-08-12T03:07:21.597Z,2.20
2022-08-12T03:10:16.071Z,2.20
2022-08-12T03:13:08.307Z,2.20
2022-08-12T03:15:57.271Z,2.77
2022-08-12T03:18:46.905Z,2.13
2022-08-12T03:21:52.713Z,1.80
2022-08-12T03:24:46.774Z,2.00
2022-08-12T03:27:35.293Z,1.95
2022-08-12T03:30:25.526Z,1.88
2022-08-12T03:33:16.607Z,1.92
2022-08-12T03:36:08.238Z,2.10
2022-08-12T03:39:35.401Z,2.45
2022-08-12T03:42:34.465Z,2.90
2022-08-12T03:45:51.876Z,2.03
2022-08-12T03:48:59.279Z,1.90
2022-08-12T03:52:05.911Z,2.35
2022-08-12T03:55:13.796Z,1.98
2022-08-12T03:58:21.196Z,2.33
2022-08-12T04:01:10.152Z,2.53
2022-08-12T04:03:59.066Z,2.35
2022-08-12T04:06:47.841Z,2.65
2022-08-12T04:09:38.899Z,1.70
2022-08-12T04:12:47.351Z,1.80
2022-08-12T04:15:35.971Z,5.90
2022-08-12T04:18:26.096Z,2.72
2022-08-12T04:21:14.750Z,2.50
2022-08-12T04:24:03.829Z,2.65
2022-08-12T04:26:52.487Z,2.67
2022-08-12T04:30:16.871Z,2.70
2022-08-12T04:32:53.903Z,3.10
2022-08-12T04:35:43.097Z,2.55
2022-08-12T04:38:33.198Z,2.45
2022-08-12T04:41:22.142Z,2.38
2022-08-12T04:44:11.747Z,3.53
2022-08-12T04:47:01.848Z,1.70
2022-08-12T04:49:51.076Z,3.38
2022-08-12T04:52:39.821Z,2.78
2022-08-12T04:55:28.578Z,2.40
2022-08-12T04:58:29.735Z,1.95
2022-08-12T05:01:18.729Z,3.45
2022-08-12T05:04:10.797Z,2.30
2022-08-12T05:06:59.289Z,5.10
2022-08-12T05:10:00.380Z,2.53
2022-08-12T05:12:59.152Z,2.78
2022-08-12T05:16:02.564Z,1.63
2022-08-12T05:18:54.427Z,2.83
2022-08-12T05:21:48.069Z,3.08
2022-08-12T05:24:37.116Z,2.50
2022-08-12T05:27:26.239Z,2.63
2022-08-12T05:30:15.695Z,2.25
2022-08-12T05:33:05.895Z,2.58
2022-08-12T05:35:54.173Z,2.42
2022-08-12T05:39:00.530Z,2.97
2022-08-12T05:41:48.706Z,2.60
2022-08-12T05:44:37.664Z,2.58
2022-08-12T05:47:52.309Z,2.05
2022-08-12T05:50:35.951Z,2.78
2022-08-12T05:53:24.369Z,2.30
2022-08-12T05:56:23.944Z,3.50
2022-08-12T05:59:14.278Z,2.70
2022-08-12T06:02:13.401Z,2.72
2022-08-12T06:05:02.807Z,2.47
2022-08-12T06:08:01.817Z,2.50
2022-08-12T06:10:51.407Z,3.55
2022-08-12T06:13:53.931Z,2.10
2022-08-12T06:16:44.232Z,2.13
2022-08-12T06:20:29.541Z,2.70
2022-08-12T06:22:41.756Z,2.75
2022-08-12T06:25:30.605Z,2.67
2022-08-12T06:28:21.386Z,2.70
2022-08-12T06:31:26.995Z,3.20
2022-08-12T06:35:26.296Z,2.83
2022-08-12T06:37:25.399Z,2.92
2022-08-12T06:40:15.347Z,2.25
2022-08-12T06:43:02.824Z,2.30
2022-08-12T06:45:51.176Z,2.60
2022-08-12T06:48:43.561Z,2.60
2022-08-12T06:51:33.649Z,3.72
2022-08-12T06:54:31.846Z,2.38
2022-08-12T06:57:59.777Z,2.75
2022-08-12T07:00:32.755Z,2.00
2022-08-12T07:03:23.767Z,2.70
2022-08-12T07:06:13.840Z,3.28
2022-08-12T07:09:05.146Z,2.50
2022-08-12T07:11:53.881Z,2.58
2022-08-12T07:14:45.710Z,2.25
2022-08-12T07:17:38.170Z,2.97
2022-08-12T07:20:51.347Z,4.50
2022-08-12T07:23:42.528Z,2.60
2022-08-12T07:26:30.649Z,2.58
2022-08-12T07:29:20.684Z,2.72
2022-08-12T07:32:09.277Z,2.40
2022-08-12T07:34:58.208Z,3.58
2022-08-12T07:37:50.733Z,1.88
2022-08-12T07:40:40.619Z,2.53
2022-08-12T07:43:29.198Z,2.85
2022-08-12T07:46:20.231Z,1.83
2022-08-12T07:49:10.643Z,2.30
2022-08-12T07:52:00.892Z,1.98
2022-08-12T07:54:49.651Z,3.13
2022-08-12T07:57:52.547Z,2.47
2022-08-12T08:00:41.804Z,2.00
2022-08-12T08:03:31.153Z,2.83
2022-08-12T08:06:20.177Z,2.28
2022-08-12T08:09:09.993Z,2.65
2022-08-12T08:12:18.716Z,3.20
2022-08-12T08:15:11.208Z,2.50
2022-08-12T08:18:02.998Z,2.58
2022-08-12T08:20:52.153Z,2.45
2022-08-12T08:24:01.979Z,2.15
2022-08-12T08:26:55.701Z,2.50
2022-08-12T08:29:45.706Z,3.05
2022-08-12T08:32:35.548Z,2.08
2022-08-12T08:35:25.251Z,3.75
2022-08-12T08:38:30.739Z,2.78
2022-08-12T08:42:15.751Z,2.35
2022-08-12T08:44:49.847Z,2.03
2022-08-12T08:47:48.568Z,2.67
2022-08-12T08:50:37.569Z,1.92
2022-08-12T08:53:26.165Z,2.03
2022-08-12T08:56:16.569Z,2.08
2022-08-12T08:59:05.322Z,2.30
2022-08-12T09:01:54.267Z,2.53
2022-08-12T09:05:13.207Z,2.60
2022-08-12T09:08:09.203Z,2.20
2022-08-12T09:14:30.299Z,2.72
2022-08-12T09:17:21.418Z,2.33
2022-08-12T09:20:17.147Z,2.72
2022-08-12T09:26:28.041Z,2.78
2022-08-12T09:30:10.443Z,2.97
2022-08-12T09:33:05.055Z,3.70
2022-08-12T09:35:44.455Z,2.42
2022-08-12T09:38:36.944Z,2.53
2022-08-12T09:42:09.865Z,2.85
2022-08-12T09:44:52.401Z,3.92
2022-08-12T09:48:01.949Z,2.35
2022-08-12T09:50:55.394Z,5.13
2022-08-12T09:53:45.600Z,2.67
2022-08-12T09:57:00.626Z,2.53
2022-08-12T10:00:13.551Z,3.00
2022-08-12T10:03:04.213Z,3.10
2022-08-12T10:06:28.053Z,4.72
2022-08-12T10:09:06.029Z,3.15
2022-08-12T10:12:14.036Z,3.50
2022-08-12T10:15:02.963Z,2.75
2022-08-12T10:18:06.082Z,3.08
2022-08-12T10:20:59.582Z,2.72
2022-08-12T10:23:51.490Z,3.42
2022-08-12T10:27:06.117Z,3.05
2022-08-12T10:30:37.197Z,4.13
2022-08-12T10:33:03.330Z,2.92
2022-08-12T10:36:08.459Z,2.53
2022-08-12T10:38:57.323Z,2.53
2022-08-12T10:42:03.301Z,2.63
2022-08-12T10:44:52.296Z,2.38
2022-08-12T10:48:19.203Z,3.35
2022-08-12T10:50:56.606Z,3.15
2022-08-12T10:54:00.442Z,3.00
2022-08-12T10:56:51.552Z,2.33
2022-08-12T11:00:31.982Z,3.47
2022-08-12T11:04:35.743Z,3.50
2022-08-12T11:07:06.268Z,2.88
2022-08-12T11:09:13.553Z,2.90
2022-08-12T11:12:56.222Z,2.42
2022-08-12T11:15:21.127Z,3.15
2022-08-12T11:18:18.451Z,2.50
2022-08-12T11:21:08.093Z,2.45
2022-08-12T11:24:04.562Z,5.22
2022-08-12T11:26:58.805Z,2.83
2022-08-12T11:30:06.231Z,3.60
2022-08-12T11:32:55.703Z,2.20
2022-08-12T11:38:38.973Z,2.47
2022-08-12T11:41:32.045Z,2.42
2022-08-12T11:44:36.349Z,2.78
2022-08-12T11:47:29.027Z,2.63
2022-08-12T11:50:20.701Z,2.70
2022-08-12T11:53:57.015Z,2.75
2022-08-12T11:56:38.853Z,2.85
2022-08-12T12:02:40.340Z,2.90
2022-08-12T12:05:39.493Z,2.63
2022-08-12T12:08:37.091Z,2.53
2022-08-12T12:11:49.061Z,2.72
2022-08-12T12:14:39.696Z,2.53
2022-08-12T12:17:38.145Z,2.25
2022-08-12T12:20:30.379Z,3.13
2022-08-12T12:23:28.793Z,2.45
2022-08-12T12:26:34.676Z,2.53
2022-08-12T12:30:19.551Z,2.75
2022-08-12T12:32:34.398Z,2.22
2022-08-12T12:36:05.562Z,2.30
2022-08-12T12:38:31.277Z,1.83
2022-08-12T12:41:24.056Z,3.50
2022-08-12T12:44:38.699Z,5.78
2022-08-12T12:47:30.550Z,2.78
2022-08-12T12:50:29.932Z,3.35
2022-08-12T12:54:05.037Z,2.53
2022-08-12T12:56:34.811Z,2.55
2022-08-12T12:59:33.748Z,2.47
2022-08-12T13:02:33.321Z,2.22
2022-08-12T13:05:27.974Z,3.10
2022-08-12T13:08:28.437Z,4.32
2022-08-12T13:11:39.055Z,3.28
2022-08-12T13:14:31.847Z,3.72
2022-08-12T13:17:23.692Z,2.72
2022-08-12T13:20:37.704Z,2.33
2022-08-12T13:23:37.059Z,2.72
2022-08-12T13:26:29.784Z,2.83
2022-08-12T13:29:18.033Z,3.05
2022-08-12T13:32:19.145Z,2.40
2022-08-12T13:35:19.775Z,2.95
2022-08-12T13:38:35.181Z,2.38
2022-08-12T13:41:34.201Z,3.20
2022-08-12T13:44:22.824Z,2.88
2022-08-12T13:47:19.538Z,2.40
2022-08-12T13:50:09.723Z,3.33
2022-08-12T13:52:58.564Z,2.75
2022-08-12T13:55:50.084Z,2.10
2022-08-12T13:58:52.768Z,3.05
2022-08-12T14:01:41.550Z,2.78
2022-08-12T14:04:29.768Z,2.45
2022-08-12T14:07:18.958Z,2.50
2022-08-12T14:10:28.690Z,2.70
2022-08-12T14:14:03.718Z,2.55
2022-08-12T14:16:46.528Z,2.80
2022-08-12T14:20:00.566Z,4.72
2022-08-12T14:22:51.531Z,3.15
2022-08-12T14:28:31.274Z,3.22
2022-08-12T14:31:21.833Z,2.22
2022-08-12T14:34:11.525Z,3.00
2022-08-12T14:37:02.683Z,2.80
2022-08-12T14:39:56.046Z,2.90
2022-08-12T14:42:45.108Z,3.75
2022-08-12T14:45:46.877Z,3.90
2022-08-12T14:52:42.599Z,3.40
2022-08-12T14:57:57.188Z,3.03
2022-08-12T15:01:05.642Z,2.55
2022-08-12T15:03:58.220Z,3.00
2022-08-12T15:06:52.685Z,4.68
2022-08-12T15:09:41.619Z,3.83
2022-08-12T15:12:30.347Z,2.80
2022-08-12T15:15:21.725Z,3.28
2022-08-12T15:18:10.980Z,4.18
2022-08-12T15:21:05.463Z,3.28
2022-08-12T15:24:03.591Z,2.67
2022-08-12T15:26:58.499Z,4.30
2022-08-12T15:29:47.629Z,2.47
2022-08-12T15:32:41.214Z,2.92
2022-08-12T15:35:50.184Z,2.97
2022-08-12T15:38:42.611Z,3.17
2022-08-12T15:41:50.114Z,3.75
2022-08-12T15:44:42.673Z,4.63
2022-08-12T15:47:47.870Z,2.95
2022-08-12T15:50:37.612Z,4.43
2022-08-12T15:53:40.095Z,2.95
2022-08-12T15:56:30.025Z,3.83
2022-08-12T15:59:20.455Z,4.13
2022-08-12T16:02:29.864Z,3.53
2022-08-12T16:06:11.487Z,4.40
2022-08-12T16:08:29.775Z,4.72
2022-08-12T16:11:20.816Z,3.40
2022-08-12T16:14:10.439Z,5.93
2022-08-12T16:17:01.205Z,3.75
2022-08-12T16:20:02.969Z,3.63
2022-08-12T16:22:59.655Z,5.35
2022-08-12T16:26:03.398Z,3.75
2022-08-12T16:28:57.369Z,3.67
2022-08-12T16:32:05.340Z,3.83
2022-08-12T16:34:55.865Z,4.30
2022-08-12T16:38:25.014Z,4.18
2022-08-12T16:40:55.866Z,3.60
2022-08-12T16:43:43.944Z,3.75
2022-08-12T16:46:35.616Z,4.72
2022-08-12T16:49:27.160Z,3.65
2022-08-12T16:52:30.453Z,3.40
2022-08-12T16:55:19.639Z,3.97
2022-08-12T16:58:25.545Z,3.83
2022-08-12T17:01:16.913Z,3.28
2022-08-12T17:04:12.993Z,3.22
2022-08-12T17:07:03.334Z,3.40
2022-08-12T17:09:52.510Z,4.43
2022-08-12T17:12:44.048Z,4.25
2022-08-12T17:15:57.789Z,3.38
2022-08-12T17:18:57.048Z,3.97
2022-08-12T17:22:01.217Z,3.35
2022-08-12T17:24:55.685Z,3.70
2022-08-12T17:27:57.026Z,4.20
2022-08-12T17:33:48.493Z,4.30
2022-08-12T17:36:38.703Z,3.92
2022-08-12T17:40:15.100Z,2.90
2022-08-12T17:42:42.331Z,3.88
2022-08-12T17:45:32.431Z,3.58
2022-08-12T17:48:23.997Z,4.47
2022-08-12T17:51:24.622Z,3.55
2022-08-12T17:54:14.669Z,4.28
2022-08-12T17:57:15.948Z,5.45
2022-08-12T18:00:09.620Z,3.53
2022-08-12T18:03:03.687Z,3.72
2022-08-12T18:05:59.114Z,4.00
2022-08-12T18:08:55.292Z,3.17
2022-08-12T18:12:05.340Z,3.80
2022-08-12T18:14:58.339Z,3.63
2022-08-12T18:17:49.490Z,3.60
2022-08-12T18:20:49.616Z,3.70
2022-08-12T18:23:50.807Z,3.95
2022-08-12T18:26:45.346Z,3.78
2022-08-12T18:32:53.843Z,4.28
2022-08-12T18:35:47.215Z,3.60
2022-08-12T18:38:44.914Z,4.68
2022-08-12T18:41:39.709Z,6.57
2022-08-12T18:44:30.039Z,4.13
2022-08-12T18:47:20.840Z,3.95
2022-08-12T18:50:10.908Z,3.63
2022-08-12T18:53:00.622Z,3.75
2022-08-12T18:55:57.317Z,4.95
2022-08-12T18:58:59.447Z,3.58
2022-08-12T19:02:20.544Z,5.90
2022-08-12T19:05:08.209Z,4.65
2022-08-12T19:08:02.175Z,4.43
2022-08-12T19:10:52.683Z,4.65
2022-08-12T19:13:58.981Z,4.50
2022-08-12T19:16:50.653Z,6.78
2022-08-12T19:19:41.830Z,4.03
2022-08-12T19:22:30.750Z,4.45
2022-08-12T19:25:59.669Z,3.90
2022-08-12T19:28:36.585Z,3.75
2022-08-12T19:31:58.339Z,4.47
2022-08-12T19:35:54.139Z,4.10
2022-08-12T19:38:06.912Z,4.65
2022-08-12T19:40:57.872Z,4.30
2022-08-12T19:44:00.612Z,4.28
2022-08-12T19:47:01.787Z,4.13
2022-08-12T19:49:53.195Z,5.13
2022-08-12T19:52:43.623Z,3.92
2022-08-12T19:55:39.091Z,4.93
2022-08-12T19:58:28.898Z,3.88
2022-08-12T20:01:19.047Z,4.95
2022-08-12T20:04:07.495Z,4.88
2022-08-12T20:07:00.327Z,5.20
2022-08-12T20:09:51.756Z,5.20
2022-08-12T20:13:10.168Z,4.15
2022-08-12T20:15:58.800Z,4.80
2022-08-12T20:18:57.312Z,4.40
2022-08-12T20:21:46.674Z,4.50
2022-08-12T20:24:37.932Z,5.63
2022-08-12T20:28:02.875Z,4.45
2022-08-12T20:30:53.498Z,4.22
2022-08-12T20:33:56.118Z,3.88
2022-08-12T20:36:46.066Z,4.80
2022-08-12T20:39:57.378Z,4.40
2022-08-12T20:42:50.556Z,4.80
2022-08-12T20:45:44.864Z,4.95
2022-08-12T20:48:41.233Z,3.90
2022-08-12T20:51:46.428Z,5.10
2022-08-12T20:54:50.449Z,4.68
2022-08-12T20:58:02.099Z,4.38
2022-08-12T21:00:47.691Z,4.53
2022-08-12T21:03:58.404Z,4.35
2022-08-12T21:07:04.351Z,3.95
2022-08-12T21:09:56.732Z,7.45
2022-08-12T21:12:45.746Z,4.63
2022-08-12T21:15:54.773Z,5.93
2022-08-12T21:18:50.469Z,4.70
2022-08-12T21:21:49.794Z,5.53
2022-08-12T21:24:46.601Z,5.30
2022-08-12T21:27:59.371Z,4.63
2022-08-12T21:31:11.024Z,5.53
2022-08-12T21:34:08.066Z,5.78
2022-08-12T21:37:00.229Z,5.53
2022-08-12T21:39:56.340Z,6.35
2022-08-12T21:42:45.656Z,5.63
2022-08-12T21:45:46.239Z,5.35
2022-08-12T21:48:43.091Z,7.45
2022-08-12T21:51:49.382Z,6.05
2022-08-12T21:54:43.027Z,6.10
2022-08-12T21:57:36.407Z,5.95
2022-08-12T22:00:40.892Z,7.05
2022-08-12T22:04:02.990Z,6.57
2022-08-12T22:06:56.002Z,5.32
2022-08-12T22:09:48.097Z,5.85
2022-08-12T22:12:48.141Z,6.90
2022-08-12T22:15:36.131Z,8.32
2022-08-12T22:18:26.942Z,6.85
2022-08-12T22:21:16.787Z,6.45
2022-08-12T22:24:09.725Z,7.03
2022-08-12T22:27:32.685Z,6.43
2022-08-12T22:30:40.653Z,6.30
2022-08-12T22:33:29.347Z,6.85
2022-08-12T22:36:27.898Z,7.50
2022-08-12T22:39:17.826Z,7.00
2022-08-12T22:42:24.820Z,6.80
2022-08-12T22:45:56.247Z,7.75
2022-08-12T22:48:50.658Z,5.93
2022-08-12T22:52:01.014Z,8.50
2022-08-12T22:55:02.974Z,7.68
2022-08-12T22:57:55.094Z,6.47
2022-08-12T23:03:47.954Z,6.35
2022-08-12T23:06:41.602Z,7.05
2022-08-12T23:09:34.633Z,6.82
2022-08-12T23:13:05.639Z,7.70
2022-08-12T23:15:55.531Z,7.97
2022-08-12T23:18:44.156Z,7.82
2022-08-12T23:22:03.358Z,6.35
2022-08-12T23:24:56.517Z,7.53
2022-08-12T23:28:03.113Z,6.93
2022-08-12T23:30:52.190Z,6.95
2022-08-12T23:34:02.613Z,6.18
2022-08-12T23:36:51.346Z,7.05
2022-08-12T23:40:06.589Z,6.43
2022-08-12T23:42:50.793Z,7.55
2022-08-12T23:45:39.288Z,6.63
2022-08-12T23:48:50.385Z,6.47
2022-08-12T23:51:40.513Z,7.40
2022-08-12T23:54:38.782Z,6.32
2022-08-12T23:57:28.398Z,7.05
